sensor_id;sensor_type;location;lat;lon;timestamp;pressure;altitude;pressure_sealevel;temperature;humidity
34925;BME280;21130;51.728;8.748;2023-05-22T00:00:11;100244.00;;;15.39;100.00
34925;BME280;21130;51.728;8.748;2023-05-22T00:02:38;100237.03;;;15.36;100.00
34925;BME280;21130;51.728;8.748;2023-05-22T00:05:07;100239.84;;;15.31;100.00
34925;BME280;21130;51.728;8.748;2023-05-22T00:07:35;100232.56;;;15.35;100.00
34925;BME280;21130;51.728;8.748;2023-05-22T00:10:03;100240.94;;;15.35;100.00
34925;BME280;21130;51.728;8.748;2023-05-22T00:12:32;100239.00;;;15.25;100.00
34925;BME280;21130;51.728;8.748;2023-05-22T00:14:59;100230.06;;;15.18;100.00
34925;BME280;21130;51.728;8.748;2023-05-22T00:17:25;100230.09;;;15.13;100.00
34925;BME280;21130;51.728;8.748;2023-05-22T00:19:55;100231.75;;;15.09;100.00
34925;BME280;21130;51.728;8.748;2023-05-22T00:22:26;100225.59;;;15.07;100.00
34925;BME280;21130;51.728;8.748;2023-05-22T00:24:55;100225.34;;;15.08;100.00
34925;BME280;21130;51.728;8.748;2023-05-22T00:27:23;100220.56;;;15.09;100.00
34925;BME280;21130;51.728;8.748;2023-05-22T00:29:50;100218.34;;;15.11;100.00
34925;BME280;21130;51.728;8.748;2023-05-22T00:32:16;100212.47;;;15.12;100.00
34925;BME280;21130;51.728;8.748;2023-05-22T00:34:42;100208.81;;;15.17;100.00
34925;BME280;21130;51.728;8.748;2023-05-22T00:37:09;100210.22;;;15.15;100.00
34925;BME280;21130;51.728;8.748;2023-05-22T00:39:35;100204.34;;;15.16;100.00
34925;BME280;21130;51.728;8.748;2023-05-22T00:42:02;100201.28;;;15.18;100.00
34925;BME280;21130;51.728;8.748;2023-05-22T00:44:30;100200.72;;;15.21;100.00
34925;BME280;21130;51.728;8.748;2023-05-22T00:46:57;100201.84;;;15.25;100.00
34925;BME280;21130;51.728;8.748;2023-05-22T00:49:23;100194.84;;;15.27;100.00
34925;BME280;21130;51.728;8.748;2023-05-22T00:51:50;100190.34;;;15.26;100.00
34925;BME280;21130;51.728;8.748;2023-05-22T00:54:16;100195.38;;;15.24;100.00
34925;BME280;21130;51.728;8.748;2023-05-22T00:56:43;100196.53;;;15.18;100.00
34925;BME280;21130;51.728;8.748;2023-05-22T00:59:09;100195.41;;;15.19;100.00
34925;BME280;21130;51.728;8.748;2023-05-22T01:01:37;100195.41;;;15.19;100.00
34925;BME280;21130;51.728;8.748;2023-05-22T01:04:08;100195.13;;;15.21;100.00
34925;BME280;21130;51.728;8.748;2023-05-22T01:06:35;100189.22;;;15.22;100.00
34925;BME280;21130;51.728;8.748;2023-05-22T01:09:02;100186.75;;;15.21;100.00
34925;BME280;21130;51.728;8.748;2023-05-22T01:11:39;100190.66;;;15.25;100.00
34925;BME280;21130;51.728;8.748;2023-05-22T01:14:13;100189.53;;;15.21;100.00
34925;BME280;21130;51.728;8.748;2023-05-22T01:16:50;100193.72;;;15.18;100.00
34925;BME280;21130;51.728;8.748;2023-05-22T01:19:33;100186.44;;;15.17;100.00
34925;BME280;21130;51.728;8.748;2023-05-22T01:22:15;100195.97;;;15.16;100.00
34925;BME280;21130;51.728;8.748;2023-05-22T01:24:52;100185.06;;;15.15;100.00
34925;BME280;21130;51.728;8.748;2023-05-22T01:30:40;100189.56;;;15.10;100.00
34925;BME280;21130;51.728;8.748;2023-05-22T01:33:08;100187.03;;;15.09;100.00
34925;BME280;21130;51.728;8.748;2023-05-22T01:35:38;100194.03;;;15.11;100.00
34925;BME280;21130;51.728;8.748;2023-05-22T01:38:06;100187.03;;;15.09;100.00
34925;BME280;21130;51.728;8.748;2023-05-22T01:40:33;100185.91;;;15.25;100.00
34925;BME280;21130;51.728;8.748;2023-05-22T01:43:00;100175.84;;;15.19;100.00
34925;BME280;21130;51.728;8.748;2023-05-22T01:45:27;100176.69;;;15.15;100.00
34925;BME280;21130;51.728;8.748;2023-05-22T01:47:57;100178.94;;;15.18;100.00
34925;BME280;21130;51.728;8.748;2023-05-22T01:50:24;100181.44;;;15.14;100.00
34925;BME280;21130;51.728;8.748;2023-05-22T01:52:55;100177.56;;;15.10;100.00
34925;BME280;21130;51.728;8.748;2023-05-22T01:55:30;100182.84;;;15.06;100.00
34925;BME280;21130;51.728;8.748;2023-05-22T01:58:09;100187.63;;;15.06;100.00
34925;BME280;21130;51.728;8.748;2023-05-22T02:00:38;100188.44;;;15.01;100.00
34925;BME280;21130;51.728;8.748;2023-05-22T02:03:18;100187.06;;;14.99;100.00
34925;BME280;21130;51.728;8.748;2023-05-22T02:05:50;100183.72;;;14.97;100.00
34925;BME280;21130;51.728;8.748;2023-05-22T02:08:19;100189.88;;;14.94;100.00
34925;BME280;21130;51.728;8.748;2023-05-22T02:10:47;100180.34;;;14.95;100.00
34925;BME280;21130;51.728;8.748;2023-05-22T02:13:15;100173.66;;;14.90;100.00
34925;BME280;21130;51.728;8.748;2023-05-22T02:15:43;100179.81;;;14.93;100.00
34925;BME280;21130;51.728;8.748;2023-05-22T02:18:11;100176.47;;;14.90;100.00
34925;BME280;21130;51.728;8.748;2023-05-22T02:20:38;100175.63;;;14.85;100.00
34925;BME280;21130;51.728;8.748;2023-05-22T02:23:04;100175.91;;;14.83;100.00
34925;BME280;21130;51.728;8.748;2023-05-22T02:25:31;100175.09;;;14.78;100.00
34925;BME280;21130;51.728;8.748;2023-05-22T02:27:57;100172.56;;;14.76;100.00
34925;BME280;21130;51.728;8.748;2023-05-22T02:30:24;100177.03;;;14.72;100.00
34925;BME280;21130;51.728;8.748;2023-05-22T02:32:51;100170.91;;;14.70;100.00
34925;BME280;21130;51.728;8.748;2023-05-22T02:35:19;100159.16;;;14.68;100.00
34925;BME280;21130;51.728;8.748;2023-05-22T02:37:46;100165.88;;;14.62;100.00
34925;BME280;21130;51.728;8.748;2023-05-22T02:40:12;100163.06;;;14.57;100.00
34925;BME280;21130;51.728;8.748;2023-05-22T02:42:39;100164.19;;;14.56;100.00
34925;BME280;21130;51.728;8.748;2023-05-22T02:45:07;100160.84;;;14.54;100.00
34925;BME280;21130;51.728;8.748;2023-05-22T02:47:34;100161.69;;;14.54;100.00
34925;BME280;21130;51.728;8.748;2023-05-22T02:50:01;100155.22;;;14.48;100.00
34925;BME280;21130;51.728;8.748;2023-05-22T02:52:29;100163.91;;;14.52;100.00
34925;BME280;21130;51.728;8.748;2023-05-22T02:54:55;100159.41;;;14.46;100.00
34925;BME280;21130;51.728;8.748;2023-05-22T02:57:22;100161.94;;;14.37;100.00
34925;BME280;21130;51.728;8.748;2023-05-22T02:59:48;100149.91;;;14.32;100.00
34925;BME280;21130;51.728;8.748;2023-05-22T03:02:15;100152.72;;;14.26;100.00
34925;BME280;21130;51.728;8.748;2023-05-22T03:04:41;100146.28;;;14.21;100.00
34925;BME280;21130;51.728;8.748;2023-05-22T03:07:08;100146.84;;;14.18;100.00
34925;BME280;21130;51.728;8.748;2023-05-22T03:09:37;100146.03;;;14.17;100.00
34925;BME280;21130;51.728;8.748;2023-05-22T03:12:04;100139.56;;;14.17;100.00
34925;BME280;21130;51.728;8.748;2023-05-22T03:14:31;100146.03;;;14.12;100.00
34925;BME280;21130;51.728;8.748;2023-05-22T03:16:57;100145.16;;;14.17;100.00
34925;BME280;21130;51.728;8.748;2023-05-22T03:19:23;100153.81;;;14.15;100.00
34925;BME280;21130;51.728;8.748;2023-05-22T03:21:50;100141.28;;;14.18;100.00
34925;BME280;21130;51.728;8.748;2023-05-22T03:24:20;100149.34;;;14.14;100.00
34925;BME280;21130;51.728;8.748;2023-05-22T03:26:48;100132.34;;;14.21;100.00
34925;BME280;21130;51.728;8.748;2023-05-22T03:29:14;100145.16;;;14.17;100.00
34925;BME280;21130;51.728;8.748;2023-05-22T03:31:40;100138.75;;;14.16;100.00
34925;BME280;21130;51.728;8.748;2023-05-22T03:34:07;100144.06;;;14.18;100.00
34925;BME280;21130;51.728;8.748;2023-05-22T03:36:33;100144.91;;;14.18;100.00
34925;BME280;21130;51.728;8.748;2023-05-22T03:39:00;100145.47;;;14.20;100.00
34925;BME280;21130;51.728;8.748;2023-05-22T03:41:26;100136.25;;;14.25;100.00
34925;BME280;21130;51.728;8.748;2023-05-22T03:43:54;100145.16;;;14.22;100.00
34925;BME280;21130;51.728;8.748;2023-05-22T03:46:21;100151.59;;;14.22;100.00
34925;BME280;21130;51.728;8.748;2023-05-22T03:48:48;100141.53;;;14.26;100.00
34925;BME280;21130;51.728;8.748;2023-05-22T03:51:15;100138.47;;;14.28;100.00
34925;BME280;21130;51.728;8.748;2023-05-22T03:53:41;100134.28;;;14.31;100.00
34925;BME280;21130;51.728;8.748;2023-05-22T03:56:08;100146.28;;;14.31;100.00
34925;BME280;21130;51.728;8.748;2023-05-22T03:58:34;100140.72;;;14.31;100.00
34925;BME280;21130;51.728;8.748;2023-05-22T04:01:02;100138.47;;;14.33;100.00
34925;BME280;21130;51.728;8.748;2023-05-22T04:03:28;100137.34;;;14.34;100.00
34925;BME280;21130;51.728;8.748;2023-05-22T04:05:55;100137.09;;;14.36;100.00
34925;BME280;21130;51.728;8.748;2023-05-22T04:08:22;100140.72;;;14.41;100.00
34925;BME280;21130;51.728;8.748;2023-05-22T04:10:49;100145.47;;;14.46;100.00
34925;BME280;21130;51.728;8.748;2023-05-22T04:13:18;100140.16;;;14.44;100.00
34925;BME280;21130;51.728;8.748;2023-05-22T04:15:48;100146.31;;;14.57;100.00
34925;BME280;21130;51.728;8.748;2023-05-22T04:18:15;100145.78;;;14.60;100.00
34925;BME280;21130;51.728;8.748;2023-05-22T04:20:42;100139.91;;;14.61;100.00
34925;BME280;21130;51.728;8.748;2023-05-22T04:23:08;100148.00;;;14.68;100.00
34925;BME280;21130;51.728;8.748;2023-05-22T04:25:35;100146.03;;;14.74;100.00
34925;BME280;21130;51.728;8.748;2023-05-22T04:28:01;100153.56;;;14.78;100.00
34925;BME280;21130;51.728;8.748;2023-05-22T04:30:29;100151.03;;;14.82;100.00
34925;BME280;21130;51.728;8.748;2023-05-22T04:32:58;100148.22;;;14.97;100.00
34925;BME280;21130;51.728;8.748;2023-05-22T04:35:26;100138.75;;;14.93;100.00
34925;BME280;21130;51.728;8.748;2023-05-22T04:37:54;100140.13;;;15.01;100.00
34925;BME280;21130;51.728;8.748;2023-05-22T04:40:21;100142.63;;;15.02;100.00
34925;BME280;21130;51.728;8.748;2023-05-22T04:42:47;100147.34;;;15.07;100.00
34925;BME280;21130;51.728;8.748;2023-05-22T04:45:14;100142.59;;;15.12;100.00
34925;BME280;21130;51.728;8.748;2023-05-22T04:47:41;100146.78;;;15.20;100.00
34925;BME280;21130;51.728;8.748;2023-05-22T04:50:08;100154.00;;;15.26;100.00
34925;BME280;21130;51.728;8.748;2023-05-22T04:52:36;100150.63;;;15.34;100.00
34925;BME280;21130;51.728;8.748;2023-05-22T04:55:03;100160.09;;;15.44;100.00
34925;BME280;21130;51.728;8.748;2023-05-22T04:57:31;100151.97;;;15.52;100.00
34925;BME280;21130;51.728;8.748;2023-05-22T04:59:57;100146.88;;;15.60;100.00
34925;BME280;21130;51.728;8.748;2023-05-22T05:02:23;100149.38;;;15.71;100.00
34925;BME280;21130;51.728;8.748;2023-05-22T05:04:50;100146.81;;;15.80;100.00
34925;BME280;21130;51.728;8.748;2023-05-22T05:07:17;100143.94;;;15.95;100.00
34925;BME280;21130;51.728;8.748;2023-05-22T05:09:45;100140.75;;;16.07;100.00
34925;BME280;21130;51.728;8.748;2023-05-22T05:12:11;100133.97;;;16.18;100.00
34925;BME280;21130;51.728;8.748;2023-05-22T05:14:37;100140.03;;;16.31;100.00
34925;BME280;21130;51.728;8.748;2023-05-22T05:17:04;100130.94;;;16.44;100.00
34925;BME280;21130;51.728;8.748;2023-05-22T05:19:30;100131.41;;;16.56;100.00
34925;BME280;21130;51.728;8.748;2023-05-22T05:21:58;100137.41;;;16.74;100.00
34925;BME280;21130;51.728;8.748;2023-05-22T05:24:25;100135.50;;;16.98;100.00
34925;BME280;21130;51.728;8.748;2023-05-22T05:26:53;100127.47;;;17.16;100.00
34925;BME280;21130;51.728;8.748;2023-05-22T05:29:19;100123.41;;;17.27;100.00
34925;BME280;21130;51.728;8.748;2023-05-22T05:31:46;100131.81;;;17.51;100.00
34925;BME280;21130;51.728;8.748;2023-05-22T05:34:12;100127.09;;;17.65;100.00
34925;BME280;21130;51.728;8.748;2023-05-22T05:36:38;100123.00;;;17.82;100.00
34925;BME280;21130;51.728;8.748;2023-05-22T05:39:05;100127.75;;;18.00;100.00
34925;BME280;21130;51.728;8.748;2023-05-22T05:41:32;100129.22;;;18.17;100.00
34925;BME280;21130;51.728;8.748;2023-05-22T05:44:00;100120.09;;;18.25;100.00
34925;BME280;21130;51.728;8.748;2023-05-22T05:46:26;100119.44;;;18.47;100.00
34925;BME280;21130;51.728;8.748;2023-05-22T05:48:53;100117.53;;;18.61;100.00
34925;BME280;21130;51.728;8.748;2023-05-22T05:51:19;100130.25;;;18.72;100.00
34925;BME280;21130;51.728;8.748;2023-05-22T05:53:46;100128.63;;;18.85;100.00
34925;BME280;21130;51.728;8.748;2023-05-22T05:56:13;100128.66;;;18.99;100.00
34925;BME280;21130;51.728;8.748;2023-05-22T05:58:40;100128.03;;;19.02;100.00
34925;BME280;21130;51.728;8.748;2023-05-22T06:01:07;100133.88;;;19.19;100.00
34925;BME280;21130;51.728;8.748;2023-05-22T06:03:34;100121.16;;;19.36;100.00
34925;BME280;21130;51.728;8.748;2023-05-22T06:06:00;100118.66;;;19.48;100.00
34925;BME280;21130;51.728;8.748;2023-05-22T06:08:27;100124.47;;;19.65;100.00
34925;BME280;21130;51.728;8.748;2023-05-22T06:10:53;100126.59;;;19.74;100.00
34925;BME280;21130;51.728;8.748;2023-05-22T06:13:20;100138.53;;;19.93;100.00
34925;BME280;21130;51.728;8.748;2023-05-22T06:15:46;100132.22;;;20.10;100.00
34925;BME280;21130;51.728;8.748;2023-05-22T06:18:14;100137.44;;;20.17;100.00
34925;BME280;21130;51.728;8.748;2023-05-22T06:20:41;100126.44;;;20.29;100.00
34925;BME280;21130;51.728;8.748;2023-05-22T06:23:07;100134.41;;;20.13;100.00
34925;BME280;21130;51.728;8.748;2023-05-22T06:25:35;100126.66;;;20.19;100.00
34925;BME280;21130;51.728;8.748;2023-05-22T06:28:03;100135.91;;;20.33;100.00
34925;BME280;21130;51.728;8.748;2023-05-22T06:30:30;100130.25;;;20.33;100.00
34925;BME280;21130;51.728;8.748;2023-05-22T06:32:57;100141.00;;;20.31;100.00
34925;BME280;21130;51.728;8.748;2023-05-22T06:35:24;100130.38;;;20.28;100.00
34925;BME280;21130;51.728;8.748;2023-05-22T06:37:51;100138.97;;;20.23;100.00
34925;BME280;21130;51.728;8.748;2023-05-22T06:40:18;100134.50;;;20.22;100.00
34925;BME280;21130;51.728;8.748;2023-05-22T06:42:45;100141.91;;;20.18;100.00
34925;BME280;21130;51.728;8.748;2023-05-22T06:45:12;100140.03;;;20.13;100.00
34925;BME280;21130;51.728;8.748;2023-05-22T06:47:39;100137.94;;;20.19;100.00
34925;BME280;21130;51.728;8.748;2023-05-22T06:50:06;100139.53;;;20.11;100.00
34925;BME280;21130;51.728;8.748;2023-05-22T06:52:35;100144.50;;;19.92;100.00
34925;BME280;21130;51.728;8.748;2023-05-22T06:55:03;100139.69;;;19.92;100.00
34925;BME280;21130;51.728;8.748;2023-05-22T06:57:30;100137.81;;;20.01;100.00
34925;BME280;21130;51.728;8.748;2023-05-22T06:59:57;100136.94;;;20.01;100.00
34925;BME280;21130;51.728;8.748;2023-05-22T07:02:24;100142.38;;;19.97;100.00
34925;BME280;21130;51.728;8.748;2023-05-22T07:04:51;100142.34;;;20.11;100.00
34925;BME280;21130;51.728;8.748;2023-05-22T07:07:17;100142.31;;;20.25;100.00
34925;BME280;21130;51.728;8.748;2023-05-22T07:09:45;100144.47;;;20.28;100.00
34925;BME280;21130;51.728;8.748;2023-05-22T07:12:12;100138.72;;;20.33;100.00
34925;BME280;21130;51.728;8.748;2023-05-22T07:14:38;100139.94;;;20.41;100.00
34925;BME280;21130;51.728;8.748;2023-05-22T07:17:05;100139.06;;;20.32;100.00
34925;BME280;21130;51.728;8.748;2023-05-22T07:19:31;100141.94;;;20.40;100.00
34925;BME280;21130;51.728;8.748;2023-05-22T07:21:58;100136.47;;;20.44;100.00
34925;BME280;21130;51.728;8.748;2023-05-22T07:24:24;100142.97;;;20.44;100.00
34925;BME280;21130;51.728;8.748;2023-05-22T07:26:52;100139.06;;;20.54;100.00
34925;BME280;21130;51.728;8.748;2023-05-22T07:29:18;100137.97;;;20.64;100.00
34925;BME280;21130;51.728;8.748;2023-05-22T07:31:45;100144.38;;;20.78;100.00
34925;BME280;21130;51.728;8.748;2023-05-22T07:34:11;100146.88;;;20.80;100.00
34925;BME280;21130;51.728;8.748;2023-05-22T07:36:38;100138.00;;;20.95;100.00
34925;BME280;21130;51.728;8.748;2023-05-22T07:39:04;100134.09;;;21.05;100.00
34925;BME280;21130;51.728;8.748;2023-05-22T07:41:31;100134.38;;;21.03;100.00
34925;BME280;21130;51.728;8.748;2023-05-22T07:43:59;100132.91;;;21.06;100.00
34925;BME280;21130;51.728;8.748;2023-05-22T07:46:25;100132.09;;;21.14;100.00
34925;BME280;21130;51.728;8.748;2023-05-22T07:48:52;100124.00;;;21.12;100.00
34925;BME280;21130;51.728;8.748;2023-05-22T07:51:18;100131.72;;;21.29;100.00
34925;BME280;21130;51.728;8.748;2023-05-22T07:53:45;100134.38;;;21.34;100.00
34925;BME280;21130;51.728;8.748;2023-05-22T07:56:11;100138.59;;;21.46;100.00
34925;BME280;21130;51.728;8.748;2023-05-22T07:58:38;100134.31;;;21.57;100.00
34925;BME280;21130;51.728;8.748;2023-05-22T08:01:06;100136.00;;;21.75;100.00
34925;BME280;21130;51.728;8.748;2023-05-22T08:03:33;100148.19;;;22.02;100.00
34925;BME280;21130;51.728;8.748;2023-05-22T08:05:59;100147.38;;;22.10;100.00
34925;BME280;21130;51.728;8.748;2023-05-22T08:08:26;100138.94;;;22.28;100.00
34925;BME280;21130;51.728;8.748;2023-05-22T08:10:52;100140.91;;;22.36;100.00
34925;BME280;21130;51.728;8.748;2023-05-22T08:13:18;100136.28;;;22.40;100.00
34925;BME280;21130;51.728;8.748;2023-05-22T08:15:45;100145.22;;;22.51;100.00
34925;BME280;21130;51.728;8.748;2023-05-22T08:18:13;100149.19;;;22.76;100.00
34925;BME280;21130;51.728;8.748;2023-05-22T08:20:39;100138.00;;;23.05;100.00
34925;BME280;21130;51.728;8.748;2023-05-22T08:23:06;100129.66;;;23.09;100.00
34925;BME280;21130;51.728;8.748;2023-05-22T08:25:32;100139.72;;;23.36;100.00
34925;BME280;21130;51.728;8.748;2023-05-22T08:27:58;100142.19;;;23.67;100.00
34925;BME280;21130;51.728;8.748;2023-05-22T08:30:25;100134.31;;;23.82;100.00
34925;BME280;21130;51.728;8.748;2023-05-22T08:32:51;100140.16;;;24.06;100.00
34925;BME280;21130;51.728;8.748;2023-05-22T08:35:19;100134.84;;;24.26;100.00
34925;BME280;21130;51.728;8.748;2023-05-22T08:37:46;100129.34;;;24.63;100.00
34925;BME280;21130;51.728;8.748;2023-05-22T08:40:13;100138.22;;;24.94;100.00
34925;BME280;21130;51.728;8.748;2023-05-22T08:42:41;100127.72;;;25.07;100.00
34925;BME280;21130;51.728;8.748;2023-05-22T08:45:08;100131.97;;;25.01;100.00
34925;BME280;21130;51.728;8.748;2023-05-22T08:47:36;100131.91;;;25.22;100.00
34925;BME280;21130;51.728;8.748;2023-05-22T08:50:03;100130.75;;;24.90;100.00
34925;BME280;21130;51.728;8.748;2023-05-22T08:52:36;100132.00;;;25.13;99.27
34925;BME280;21130;51.728;8.748;2023-05-22T08:55:09;100125.88;;;25.60;96.18
34925;BME280;21130;51.728;8.748;2023-05-22T08:57:36;100129.56;;;25.49;91.03
34925;BME280;21130;51.728;8.748;2023-05-22T09:00:03;100131.47;;;25.69;90.69
34925;BME280;21130;51.728;8.748;2023-05-22T09:02:30;100132.03;;;25.75;98.26
34925;BME280;21130;51.728;8.748;2023-05-22T09:04:57;100124.56;;;25.82;86.86
34925;BME280;21130;51.728;8.748;2023-05-22T09:07:26;100124.94;;;25.69;91.73
34925;BME280;21130;51.728;8.748;2023-05-22T09:09:55;100127.75;;;25.93;90.08
34925;BME280;21130;51.728;8.748;2023-05-22T09:12:24;100132.59;;;26.58;86.58
34925;BME280;21130;51.728;8.748;2023-05-22T09:14:51;100126.00;;;26.41;83.71
34925;BME280;21130;51.728;8.748;2023-05-22T09:17:18;100114.41;;;25.94;84.88
34925;BME280;21130;51.728;8.748;2023-05-22T09:19:45;100122.69;;;25.99;84.21
34925;BME280;21130;51.728;8.748;2023-05-22T09:22:12;100123.25;;;26.04;87.36
34925;BME280;21130;51.728;8.748;2023-05-22T09:24:40;100118.06;;;25.82;89.61
34925;BME280;21130;51.728;8.748;2023-05-22T09:27:09;100123.03;;;25.60;88.50
34925;BME280;21130;51.728;8.748;2023-05-22T09:29:46;100119.50;;;25.39;88.23
34925;BME280;21130;51.728;8.748;2023-05-22T09:32:13;100122.44;;;25.55;92.22
34925;BME280;21130;51.728;8.748;2023-05-22T09:34:40;100117.00;;;25.50;91.18
34925;BME280;21130;51.728;8.748;2023-05-22T09:37:07;100122.34;;;25.51;89.07
34925;BME280;21130;51.728;8.748;2023-05-22T09:39:42;100119.38;;;25.72;91.97
34925;BME280;21130;51.728;8.748;2023-05-22T09:42:11;100112.19;;;26.15;85.60
34925;BME280;21130;51.728;8.748;2023-05-22T09:44:39;100118.06;;;26.91;90.25
34925;BME280;21130;51.728;8.748;2023-05-22T09:47:08;100117.31;;;27.22;86.50
34925;BME280;21130;51.728;8.748;2023-05-22T09:49:35;100122.78;;;27.94;70.79
34925;BME280;21130;51.728;8.748;2023-05-22T09:52:06;100121.06;;;28.45;59.55
34925;BME280;21130;51.728;8.748;2023-05-22T09:54:34;100118.56;;;29.74;54.12
34925;BME280;21130;51.728;8.748;2023-05-22T09:57:04;100116.44;;;29.67;52.97
34925;BME280;21130;51.728;8.748;2023-05-22T09:59:33;100120.53;;;29.97;52.68
34925;BME280;21130;51.728;8.748;2023-05-22T10:02:04;100114.81;;;30.53;51.60
34925;BME280;21130;51.728;8.748;2023-05-22T10:04:32;100120.44;;;29.89;47.90
34925;BME280;21130;51.728;8.748;2023-05-22T10:07:01;100123.38;;;29.20;51.84
34925;BME280;21130;51.728;8.748;2023-05-22T10:09:51;100118.28;;;29.10;57.54
34925;BME280;21130;51.728;8.748;2023-05-22T10:12:40;100124.56;;;28.77;57.07
34925;BME280;21130;51.728;8.748;2023-05-22T10:15:28;100120.38;;;28.51;54.98
34925;BME280;21130;51.728;8.748;2023-05-22T10:18:14;100113.84;;;27.96;59.22
34925;BME280;21130;51.728;8.748;2023-05-22T10:20:42;100120.66;;;27.75;62.13
34925;BME280;21130;51.728;8.748;2023-05-22T10:23:08;100118.06;;;27.19;63.51
34925;BME280;21130;51.728;8.748;2023-05-22T10:25:36;100113.03;;;26.84;66.69
34925;BME280;21130;51.728;8.748;2023-05-22T10:28:03;100115.31;;;26.79;73.32
34925;BME280;21130;51.728;8.748;2023-05-22T10:30:35;100111.03;;;26.57;85.78
34925;BME280;21130;51.728;8.748;2023-05-22T10:33:11;100113.88;;;26.57;88.21
34925;BME280;21130;51.728;8.748;2023-05-22T10:35:42;100110.72;;;26.90;88.08
34925;BME280;21130;51.728;8.748;2023-05-22T10:38:32;100112.47;;;26.94;86.09
34925;BME280;21130;51.728;8.748;2023-05-22T10:41:03;100106.09;;;26.69;85.18
34925;BME280;21130;51.728;8.748;2023-05-22T10:43:29;100103.94;;;27.10;78.79
34925;BME280;21130;51.728;8.748;2023-05-22T10:46:02;100104.53;;;27.32;79.30
34925;BME280;21130;51.728;8.748;2023-05-22T10:48:36;100106.84;;;27.26;86.92
34925;BME280;21130;51.728;8.748;2023-05-22T10:51:02;100111.22;;;27.71;82.37
34925;BME280;21130;51.728;8.748;2023-05-22T10:53:30;100098.75;;;27.44;76.82
34925;BME280;21130;51.728;8.748;2023-05-22T10:55:58;100099.56;;;27.96;77.07
34925;BME280;21130;51.728;8.748;2023-05-22T10:58:28;100102.66;;;27.71;74.57
34925;BME280;21130;51.728;8.748;2023-05-22T11:01:17;100104.91;;;27.97;71.15
34925;BME280;21130;51.728;8.748;2023-05-22T11:03:51;100109.66;;;28.45;70.41
34925;BME280;21130;51.728;8.748;2023-05-22T11:06:32;100096.16;;;28.26;66.21
34925;BME280;21130;51.728;8.748;2023-05-22T11:09:15;100105.38;;;28.38;64.52
34925;BME280;21130;51.728;8.748;2023-05-22T11:11:42;100106.19;;;28.55;64.15
34925;BME280;21130;51.728;8.748;2023-05-22T11:14:10;100098.41;;;28.36;64.00
34925;BME280;21130;51.728;8.748;2023-05-22T11:16:38;100102.34;;;28.47;61.81
34925;BME280;21130;51.728;8.748;2023-05-22T11:19:05;100097.28;;;28.40;60.93
34925;BME280;21130;51.728;8.748;2023-05-22T11:21:34;100095.34;;;28.25;60.67
34925;BME280;21130;51.728;8.748;2023-05-22T11:24:01;100090.72;;;28.01;65.18
34925;BME280;21130;51.728;8.748;2023-05-22T11:26:28;100087.06;;;28.59;56.65
34925;BME280;21130;51.728;8.748;2023-05-22T11:28:55;100091.44;;;28.72;55.88
34925;BME280;21130;51.728;8.748;2023-05-22T11:31:21;100093.06;;;28.15;55.76
34925;BME280;21130;51.728;8.748;2023-05-22T11:33:49;100083.38;;;29.01;58.26
34925;BME280;21130;51.728;8.748;2023-05-22T11:36:16;100082.50;;;28.97;52.71
34925;BME280;21130;51.728;8.748;2023-05-22T11:39:03;100080.22;;;28.83;53.25
34925;BME280;21130;51.728;8.748;2023-05-22T11:41:50;100078.63;;;28.85;55.09
34925;BME280;21130;51.728;8.748;2023-05-22T11:44:17;100071.69;;;28.86;54.30
34925;BME280;21130;51.728;8.748;2023-05-22T11:46:44;100068.47;;;29.34;55.66
34925;BME280;21130;51.728;8.748;2023-05-22T11:49:11;100068.31;;;29.23;56.19
34925;BME280;21130;51.728;8.748;2023-05-22T11:51:38;100067.41;;;29.96;48.30
34925;BME280;21130;51.728;8.748;2023-05-22T11:54:05;100060.34;;;30.20;49.75
34925;BME280;21130;51.728;8.748;2023-05-22T11:56:32;100059.13;;;29.64;49.37
34925;BME280;21130;51.728;8.748;2023-05-22T11:58:58;100065.06;;;29.51;52.50
34925;BME280;21130;51.728;8.748;2023-05-22T12:01:25;100054.81;;;30.00;49.09
34925;BME280;21130;51.728;8.748;2023-05-22T12:03:51;100047.34;;;29.65;55.82
34925;BME280;21130;51.728;8.748;2023-05-22T12:06:20;100049.63;;;29.06;48.90
34925;BME280;21130;51.728;8.748;2023-05-22T12:08:47;100039.84;;;29.57;49.49
34925;BME280;21130;51.728;8.748;2023-05-22T12:11:13;100042.66;;;29.54;49.53
34925;BME280;21130;51.728;8.748;2023-05-22T12:13:39;100040.81;;;29.42;49.65
34925;BME280;21130;51.728;8.748;2023-05-22T12:16:17;100042.19;;;29.75;49.43
34925;BME280;21130;51.728;8.748;2023-05-22T12:18:43;100050.13;;;30.19;51.90
34925;BME280;21130;51.728;8.748;2023-05-22T12:21:10;100039.00;;;30.44;51.66
34925;BME280;21130;51.728;8.748;2023-05-22T12:23:46;100038.25;;;29.86;47.50
34925;BME280;21130;51.728;8.748;2023-05-22T12:26:13;100040.84;;;30.25;47.08
34925;BME280;21130;51.728;8.748;2023-05-22T12:28:40;100044.31;;;30.11;47.67
34925;BME280;21130;51.728;8.748;2023-05-22T12:31:06;100052.50;;;29.29;49.19
34925;BME280;21130;51.728;8.748;2023-05-22T12:33:33;100046.66;;;30.02;50.50
34925;BME280;21130;51.728;8.748;2023-05-22T12:36:06;100042.28;;;29.55;51.16
34925;BME280;21130;51.728;8.748;2023-05-22T12:38:40;100055.41;;;29.60;52.57
34925;BME280;21130;51.728;8.748;2023-05-22T12:41:10;100047.72;;;29.90;47.78
34925;BME280;21130;51.728;8.748;2023-05-22T12:43:37;100047.91;;;30.35;48.84
34925;BME280;21130;51.728;8.748;2023-05-22T12:46:05;100041.06;;;30.43;48.96
34925;BME280;21130;51.728;8.748;2023-05-22T12:48:31;100044.34;;;30.45;48.25
34925;BME280;21130;51.728;8.748;2023-05-22T12:50:57;100045.44;;;31.08;48.71